createdAt,value
2019-03-20T00:03:49.338Z,8.07
2019-03-20T00:09:33.696Z,10.60
2019-03-20T00:14:35.298Z,8.23
2019-03-20T00:20:15.562Z,9.47
2019-03-20T00:25:19.577Z,10.63
2019-03-20T00:31:02.148Z,9.93
2019-03-20T00:36:06.982Z,6.50
2019-03-20T00:41:47.443Z,12.60
2019-03-20T00:46:53.825Z,10.97
2019-03-20T00:52:34.104Z,11.30
2019-03-20T00:57:38.356Z,8.13
2019-03-20T01:03:18.512Z,4.07
2019-03-20T01:08:22.672Z,8.10
2019-03-20T01:13:27.104Z,5.60
2019-03-20T01:18:31.033Z,6.73
2019-03-20T01:23:35.283Z,5.67
2019-03-20T01:28:53.188Z,6.03
2019-03-20T01:34:33.056Z,9.70
2019-03-20T01:39:38.834Z,12.50
2019-03-20T01:45:18.897Z,5.13
2019-03-20T01:50:23.141Z,6.53
2019-03-20T02:02:44.306Z,7.80
2019-03-20T02:07:48.041Z,4.77
2019-03-20T02:13:36.499Z,5.83
2019-03-20T02:18:40.448Z,4.30
2019-03-20T02:23:45.166Z,7.23
2019-03-20T02:28:49.233Z,8.53
2019-03-20T02:34:29.476Z,4.27
2019-03-20T02:39:35.768Z,6.27
2019-03-20T02:45:16.443Z,6.47
2019-03-20T02:50:21.859Z,4.93
2019-03-20T02:56:02.351Z,5.07
2019-03-20T03:01:09.035Z,3.93
2019-03-20T03:06:49.149Z,4.40
2019-03-20T03:11:55.053Z,3.47
2019-03-20T03:17:35.495Z,7.10
2019-03-20T03:22:39.328Z,4.43
2019-03-20T03:27:45.247Z,8.77
2019-03-20T03:32:49.997Z,4.67
2019-03-20T03:38:30.316Z,5.27
2019-03-20T03:43:34.597Z,6.13
2019-03-20T03:49:18.099Z,5.87
2019-03-20T03:54:22.165Z,4.63
2019-03-20T04:00:03.464Z,8.53
2019-03-20T04:05:07.540Z,7.23
2019-03-20T04:10:47.527Z,6.37
2019-03-20T04:15:51.421Z,5.17
2019-03-20T04:21:31.466Z,9.73
2019-03-20T04:26:37.507Z,7.13
2019-03-20T04:32:17.982Z,5.70
2019-03-20T04:37:23.539Z,6.53
2019-03-20T04:43:06.479Z,7.20
2019-03-20T04:48:11.448Z,7.70
2019-03-20T04:53:51.249Z,10.87
2019-03-20T04:58:55.311Z,10.80
2019-03-20T05:04:35.297Z,11.77
2019-03-20T05:09:40.285Z,11.53
2019-03-20T05:15:20.315Z,11.30
2019-03-20T05:20:26.107Z,10.50
2019-03-20T05:25:30.277Z,13.13
2019-03-20T05:30:34.307Z,13.03
2019-03-20T05:35:38.748Z,16.10
2019-03-20T05:40:42.805Z,13.30
2019-03-20T05:45:48.021Z,17.37
2019-03-20T05:50:54.220Z,14.23
2019-03-20T05:56:35.034Z,15.90
2019-03-20T06:01:39.064Z,15.57
2019-03-20T06:06:44.066Z,15.07
2019-03-20T06:12:24.199Z,13.97
2019-03-20T06:17:40.594Z,15.20
2019-03-20T06:22:50.463Z,19.83
2019-03-20T06:28:30.758Z,20.80
2019-03-20T06:33:34.725Z,19.23
2019-03-20T06:39:14.842Z,25.80
2019-03-20T06:44:21.715Z,22.20
2019-03-20T06:50:01.504Z,25.63
2019-03-20T06:55:06.556Z,18.90
2019-03-20T07:00:46.725Z,20.63
2019-03-20T07:06:20.040Z,22.70
2019-03-20T07:12:00.320Z,22.30
2019-03-20T07:17:04.892Z,26.07
2019-03-20T07:22:44.929Z,23.33
2019-03-20T07:27:48.965Z,21.30
2019-03-20T07:33:30.052Z,25.67
2019-03-20T07:38:34.197Z,23.73
2019-03-20T07:44:18.149Z,24.57
2019-03-20T07:49:22.297Z,29.13
2019-03-20T07:55:10.648Z,26.43
2019-03-20T08:00:51.536Z,28.50
2019-03-20T08:05:55.623Z,26.73
2019-03-20T08:11:36.148Z,28.40
2019-03-20T08:16:41.582Z,23.97
2019-03-20T08:22:22.601Z,27.30
2019-03-20T08:27:26.769Z,29.33
2019-03-20T08:33:07.826Z,28.30
2019-03-20T08:38:18.159Z,30.20
2019-03-20T08:43:53.977Z,28.40
2019-03-20T08:48:57.920Z,33.77
2019-03-20T08:54:38.383Z,31.27
2019-03-20T08:59:42.304Z,28.03
2019-03-20T09:05:22.171Z,27.40
2019-03-20T09:10:26.141Z,30.73
2019-03-20T09:16:07.095Z,26.17
2019-03-20T09:21:11.068Z,25.93
2019-03-20T09:26:15.169Z,26.40
2019-03-20T09:31:21.837Z,21.07
2019-03-20T09:36:26.126Z,24.33
2019-03-20T09:42:06.146Z,24.47
2019-03-20T09:47:11.363Z,21.80
2019-03-20T09:52:15.485Z,20.03
2019-03-20T09:57:55.806Z,19.20
2019-03-20T10:02:59.888Z,21.80
2019-03-20T10:08:22.804Z,20.53
2019-03-20T10:13:29.396Z,18.97
2019-03-20T10:19:09.570Z,19.57
2019-03-20T10:24:13.963Z,20.20
2019-03-20T10:29:54.078Z,20.90
2019-03-20T10:34:58.156Z,22.60
2019-03-20T10:40:38.594Z,19.03
2019-03-20T10:45:43.338Z,18.83
2019-03-20T10:51:23.513Z,21.73
2019-03-20T10:56:30.281Z,22.03
2019-03-20T11:01:42.566Z,20.07
2019-03-20T11:07:17.684Z,22.20
2019-03-20T11:12:21.558Z,18.90
2019-03-20T11:18:01.884Z,21.37
2019-03-20T11:23:06.040Z,24.17
2019-03-20T11:28:11.868Z,23.73
2019-03-20T11:33:30.037Z,22.60
2019-03-20T11:39:10.429Z,23.30
2019-03-20T11:44:15.038Z,23.30
2019-03-20T11:49:19.327Z,24.30
2019-03-20T11:55:01.637Z,27.63
2019-03-20T12:00:06.060Z,28.13
2019-03-20T12:05:48.284Z,27.00
2019-03-20T12:10:54.077Z,25.97
2019-03-20T12:16:34.020Z,27.67
2019-03-20T12:21:38.089Z,31.77
2019-03-20T12:26:42.109Z,28.60
2019-03-20T12:31:45.997Z,25.93
2019-03-20T12:36:50.044Z,31.40
2019-03-20T12:42:29.895Z,29.07
2019-03-20T12:47:33.844Z,32.37
2019-03-20T12:53:14.604Z,40.43
2019-03-20T12:58:18.741Z,35.70
2019-03-20T13:03:59.209Z,33.30
2019-03-20T13:09:04.725Z,35.37
2019-03-20T13:14:44.953Z,37.50
2019-03-20T13:19:48.930Z,34.73
2019-03-20T13:24:52.882Z,37.63
2019-03-20T13:29:56.767Z,40.27
2019-03-20T13:35:37.860Z,37.03
2019-03-20T13:40:42.188Z,37.77
2019-03-20T13:46:22.226Z,37.23
2019-03-20T13:51:26.169Z,37.97
2019-03-20T13:56:30.027Z,32.13
2019-03-20T14:02:10.046Z,37.83
2019-03-20T14:07:16.662Z,35.10
2019-03-20T14:12:56.809Z,35.27
2019-03-20T14:18:01.414Z,35.63
2019-03-20T14:23:42.195Z,31.73
2019-03-20T14:28:47.991Z,33.10
2019-03-20T14:34:27.977Z,39.63
2019-03-20T14:39:32.083Z,34.70
2019-03-20T14:45:11.772Z,34.40
2019-03-20T14:50:17.063Z,38.00
2019-03-20T14:55:57.717Z,39.07
2019-03-20T15:01:01.773Z,39.53
2019-03-20T15:06:42.226Z,38.20
2019-03-20T15:11:48.893Z,39.57
2019-03-20T15:17:31.249Z,36.23
2019-03-20T15:22:37.732Z,44.83
2019-03-20T15:27:41.463Z,49.00
2019-03-20T15:32:45.354Z,44.07
2019-03-20T15:38:25.747Z,46.83
2019-03-20T15:43:30.734Z,45.07
2019-03-20T15:49:10.874Z,42.33
2019-03-20T15:54:14.820Z,45.30
2019-03-20T15:59:55.585Z,50.27
2019-03-20T16:05:01.208Z,50.47
2019-03-20T16:10:28.038Z,48.03
2019-03-20T16:15:32.019Z,49.57
2019-03-20T16:21:12.521Z,53.00
2019-03-20T16:26:22.238Z,49.37
2019-03-20T16:32:04.679Z,55.77
2019-03-20T16:37:08.601Z,48.70
2019-03-20T16:42:49.631Z,50.90
2019-03-20T16:47:55.957Z,44.60
2019-03-20T16:53:36.289Z,45.03
2019-03-20T16:58:40.258Z,47.20
2019-03-20T17:03:45.674Z,50.37
2019-03-20T17:09:27.772Z,47.53
2019-03-20T17:14:33.641Z,46.70
2019-03-20T17:20:14.163Z,52.83
2019-03-20T17:25:18.108Z,54.23
2019-03-20T17:30:27.223Z,56.27
2019-03-20T17:35:32.102Z,53.40
2019-03-20T17:41:12.248Z,54.00
2019-03-20T17:46:18.603Z,58.13
2019-03-20T17:51:58.808Z,51.30
2019-03-20T17:57:04.807Z,53.77
2019-03-20T18:02:46.389Z,49.70
2019-03-20T18:07:50.568Z,52.37
2019-03-20T18:13:30.895Z,49.17
2019-03-20T18:18:35.638Z,49.07
2019-03-20T18:24:16.633Z,46.20
2019-03-20T18:29:21.689Z,45.83
2019-03-20T18:35:02.166Z,46.63
2019-03-20T18:40:06.914Z,46.80
2019-03-20T18:45:47.395Z,47.80
2019-03-20T18:50:57.572Z,51.40
2019-03-20T18:56:37.845Z,48.53
2019-03-20T19:01:41.893Z,49.87
2019-03-20T19:07:22.353Z,53.47
2019-03-20T19:12:26.226Z,51.90
2019-03-20T19:18:06.454Z,50.20
2019-03-20T19:23:11.568Z,54.93
2019-03-20T19:28:33.707Z,54.50
2019-03-20T19:33:37.827Z,59.00
2019-03-20T19:39:18.265Z,61.47
2019-03-20T19:44:22.242Z,56.90
2019-03-20T19:50:02.877Z,57.93
2019-03-20T19:55:07.462Z,52.53
2019-03-20T20:00:13.687Z,59.17
2019-03-20T20:05:54.176Z,56.47
2019-03-20T20:10:58.359Z,60.93
2019-03-20T20:16:38.381Z,58.57
2019-03-20T20:21:43.381Z,63.87
2019-03-20T20:27:23.501Z,54.83
2019-03-20T20:32:28.126Z,55.00
2019-03-20T20:38:08.318Z,53.60
2019-03-20T20:43:12.248Z,61.30
2019-03-20T20:48:52.729Z,56.77
2019-03-20T20:53:57.831Z,57.97
2019-03-20T20:59:40.208Z,59.40
2019-03-20T21:04:44.757Z,61.80
2019-03-20T21:10:24.919Z,61.53
2019-03-20T21:15:50.818Z,60.27
2019-03-20T21:21:30.830Z,56.17
2019-03-20T21:26:38.931Z,57.10
2019-03-20T21:31:57.162Z,62.67
2019-03-20T21:37:43.842Z,56.50
2019-03-20T21:43:29.729Z,53.30
2019-03-20T21:48:34.024Z,53.33
2019-03-20T21:54:14.360Z,51.47
2019-03-20T22:00:02.932Z,49.33
2019-03-20T22:05:23.281Z,52.30
2019-03-20T22:11:20.212Z,48.47
2019-03-20T22:17:02.904Z,50.17
2019-03-20T22:22:43.015Z,57.63
2019-03-20T22:28:25.035Z,49.43
2019-03-20T22:34:11.410Z,54.53
2019-03-20T22:40:11.087Z,50.97
2019-03-20T22:45:53.310Z,55.03
2019-03-20T22:51:33.896Z,45.67
2019-03-20T22:56:56.465Z,54.57
2019-03-20T23:02:34.891Z,55.77
2019-03-20T23:07:39.547Z,51.00
2019-03-20T23:12:45.784Z,56.73
2019-03-20T23:17:50.292Z,58.70
2019-03-20T23:22:57.067Z,60.60
2019-03-20T23:28:01.452Z,54.27
2019-03-20T23:33:08.479Z,53.37
2019-03-20T23:38:13.273Z,63.87
2019-03-20T23:43:54.015Z,59.50
2019-03-20T23:49:20.362Z,65.20
2019-03-20T23:55:00.841Z,77.33
